Time;durP1;ratioP1;P1;durP2;ratioP2;P2;SDS_P1;SDS_P2;PMS_P1;PMS_P2;Temp;Humidity;BMP_temperature;BMP_pressure;BME280_temperature;BME280_humidity;BME280_pressure;Samples;Min_cycle;Max_cycle;Signal;HPM_P1;HPM_P2
2021/11/24 00:01:07;;;;;;;37.57;18.00;;;;;;;-2.59;100.00;100593.72;1637442;85;21537;-69
2021/11/24 00:03:34;;;;;;;41.30;18.77;;;;;;;-2.59;100.00;100595.52;1675844;85;21092;-70
2021/11/24 00:06:01;;;;;;;44.63;20.97;;;;;;;-2.58;100.00;100594.60;1682208;85;21573;-70
2021/11/24 00:08:28;;;;;;;41.20;20.60;;;;;;;-2.60;100.00;100597.77;1637339;86;21529;-69
2021/11/24 00:10:56;;;;;;;45.00;20.47;;;;;;;-2.63;100.00;100600.58;1581263;89;21577;-69
2021/11/24 00:13:23;;;;;;;42.60;21.40;;;;;;;-2.67;100.00;100595.42;1660959;86;21050;-69
2021/11/24 00:15:50;;;;;;;44.33;21.00;;;;;;;-2.67;100.00;100601.19;1637822;86;21068;-68
2021/11/24 00:18:17;;;;;;;45.07;21.57;;;;;;;-2.65;100.00;100598.48;1608011;86;21549;-69
2021/11/24 00:20:44;;;;;;;45.90;21.97;;;;;;;-2.68;100.00;100595.02;1632048;87;21074;-69
2021/11/24 00:23:11;;;;;;;40.87;19.57;;;;;;;-2.70;100.00;100600.86;1625296;87;21066;-68
2021/11/24 00:25:39;;;;;;;37.53;17.13;;;;;;;-2.71;100.00;100603.57;1588942;87;21543;-68
2021/11/24 00:28:06;;;;;;;33.30;17.10;;;;;;;-2.72;100.00;100601.40;1625779;87;21046;-70
2021/11/24 00:30:33;;;;;;;35.73;16.60;;;;;;;-2.71;100.00;100600.48;1622166;87;21046;-69
2021/11/24 00:33:00;;;;;;;34.77;16.80;;;;;;;-2.71;100.00;100604.45;1637625;87;21601;-69
2021/11/24 00:35:27;;;;;;;33.73;16.13;;;;;;;-2.69;100.00;100604.38;1638231;87;21599;-69
2021/11/24 00:37:55;;;;;;;36.37;18.03;;;;;;;-2.67;100.00;100609.13;1642550;87;21619;-69
2021/11/24 00:40:22;;;;;;;35.70;16.70;;;;;;;-2.66;100.00;100610.83;1643787;86;21036;-69
2021/11/24 00:42:49;;;;;;;33.37;15.40;;;;;;;-2.65;100.00;100607.74;1642925;87;21052;-69
2021/11/24 00:45:16;;;;;;;32.87;16.60;;;;;;;-2.66;100.00;100613.48;1604719;87;21607;-68
2021/11/24 00:47:43;;;;;;;35.53;16.23;;;;;;;-2.65;100.00;100611.72;1631918;87;21723;-69
2021/11/24 00:50:10;;;;;;;40.00;16.57;;;;;;;-2.65;100.00;100609.06;1606875;87;21647;-68
2021/11/24 00:52:37;;;;;;;35.27;16.37;;;;;;;-2.69;100.00;100609.67;1607738;87;21136;-69
2021/11/24 00:55:05;;;;;;;36.23;16.70;;;;;;;-2.75;100.00;100608.16;1612620;87;21048;-69
2021/11/24 00:57:33;;;;;;;34.13;16.00;;;;;;;-2.78;100.00;100613.61;1642561;87;21052;-68
2021/11/24 01:00:02;;;;;;;35.97;16.17;;;;;;;-2.79;100.00;100615.00;1611075;86;21033;-69
2021/11/24 01:02:30;;;;;;;41.63;18.17;;;;;;;-2.79;100.00;100610.56;1649373;86;21049;-69
2021/11/24 01:04:57;;;;;;;37.33;17.37;;;;;;;-2.77;100.00;100617.95;1633767;86;21022;-69
2021/11/24 01:07:25;;;;;;;37.87;17.27;;;;;;;-2.78;100.00;100615.38;1666456;86;21573;-68
2021/11/24 01:09:52;;;;;;;37.23;16.67;;;;;;;-2.76;100.00;100614.84;1696895;84;21687;-70
2021/11/24 01:12:21;;;;;;;37.70;16.47;;;;;;;-2.73;100.00;100612.05;1698815;84;21028;-68
2021/11/24 01:14:48;;;;;;;39.77;17.77;;;;;;;-2.73;100.00;100611.58;1697717;83;20992;-69
2021/11/24 01:17:16;;;;;;;36.07;17.67;;;;;;;-2.70;100.00;100611.92;1668715;83;21056;-68
2021/11/24 01:19:43;;;;;;;34.00;17.87;;;;;;;-2.69;100.00;100612.33;1700614;83;21043;-69
2021/11/24 01:22:11;;;;;;;39.07;17.20;;;;;;;-2.69;100.00;100622.44;1699626;83;21068;-69
2021/11/24 01:24:38;;;;;;;27.43;12.27;;;;;;;-2.69;100.00;100619.80;1702286;83;21040;-69
2021/11/24 01:27:05;;;;;;;27.57;11.30;;;;;;;-2.66;100.00;100625.39;1668109;83;21088;-69
2021/11/24 01:29:35;;;;;;;22.80;9.20;;;;;;;-2.61;100.00;100623.86;1704624;83;21028;-69
2021/11/24 01:32:03;;;;;;;21.10;9.53;;;;;;;-2.55;100.00;100628.86;1641404;85;21084;-68
2021/11/24 01:34:31;;;;;;;20.47;8.97;;;;;;;-2.46;100.00;100632.86;1672893;85;21069;-69
2021/11/24 01:36:58;;;;;;;16.43;8.47;;;;;;;-2.40;100.00;100629.45;1664754;85;21085;-68
2021/11/24 01:39:25;;;;;;;16.77;8.20;;;;;;;-2.34;100.00;100629.62;1665150;85;21049;-68
2021/11/24 01:41:52;;;;;;;17.87;8.40;;;;;;;-2.30;100.00;100633.86;1651557;85;21077;-69
2021/11/24 01:44:25;;;;;;;23.17;9.80;;;;;;;-2.26;100.00;100630.59;1638194;86;21593;-69
2021/11/24 01:47:02;;;;;;;25.72;10.90;;;;;;;-2.24;100.00;100632.22;1615256;86;21068;-69
2021/11/24 01:49:29;;;;;;;19.67;8.60;;;;;;;-2.23;100.00;100626.45;1564298;91;21080;-69
2021/11/24 01:51:58;;;;;;;30.53;12.70;;;;;;;-2.23;100.00;100626.45;1560127;91;21121;-69
2021/11/24 01:54:25;;;;;;;48.57;20.77;;;;;;;-2.23;100.00;100629.09;1561608;91;21080;-69
2021/11/24 01:56:53;;;;;;;84.90;39.10;;;;;;;-2.21;100.00;100633.84;1558966;91;21060;-69
2021/11/24 01:59:21;;;;;;;30.73;13.37;;;;;;;-2.24;100.00;100636.67;1533255;91;21093;-69
2021/11/24 02:01:49;;;;;;;25.97;11.70;;;;;;;-2.26;100.00;100646.02;1578132;90;21044;-70
2021/11/24 02:04:17;;;;;;;20.93;9.80;;;;;;;-2.29;100.00;100643.03;1573297;90;21084;-69
2021/11/24 02:06:45;;;;;;;51.03;21.77;;;;;;;-2.32;100.00;100639.22;1619822;87;21081;-69
2021/11/24 02:09:12;;;;;;;56.03;24.27;;;;;;;-2.38;100.00;100636.86;1566552;89;21072;-70
2021/11/24 02:11:42;;;;;;;75.43;32.27;;;;;;;-2.45;100.00;100639.88;1616561;88;21567;-69
2021/11/24 02:14:10;;;;;;;38.33;17.23;;;;;;;-2.52;100.00;100644.13;1617998;88;21041;-70
2021/11/24 02:16:48;;;;;;;123.20;46.43;;;;;;;-2.58;100.00;100645.76;1617090;88;21638;-69
2021/11/24 02:19:16;;;;;;;103.00;40.50;;;;;;;-2.63;100.00;100650.88;1618849;88;21073;-68
2021/11/24 02:21:53;;;;;;;22.83;11.80;;;;;;;-2.70;100.00;100652.48;1618817;87;21077;-69
2021/11/24 02:24:23;;;;;;;24.77;11.43;;;;;;;-2.73;100.00;100662.35;1617721;88;21121;-69
2021/11/24 02:26:50;;;;;;;24.33;11.23;;;;;;;-2.76;100.00;100667.34;1617919;88;21542;-70
2021/11/24 02:29:17;;;;;;;20.07;9.57;;;;;;;-2.80;100.00;100659.12;1587219;89;21092;-68
2021/11/24 02:31:49;;;;;;;19.30;8.80;;;;;;;-2.81;100.00;100663.19;1617727;88;21594;-70
2021/11/24 02:34:17;;;;;;;20.27;9.10;;;;;;;-2.87;100.00;100669.16;1618618;88;21139;-69
2021/11/24 02:36:44;;;;;;;18.13;7.87;;;;;;;-2.94;100.00;100667.72;1618906;88;21121;-69
2021/11/24 02:39:12;;;;;;;16.43;8.10;;;;;;;-2.98;100.00;100668.77;1618193;88;21121;-69
2021/11/24 02:41:40;;;;;;;18.37;7.97;;;;;;;-3.07;100.00;100675.80;1617590;88;21094;-70
2021/11/24 02:44:24;;;;;;;19.70;9.53;;;;;;;-3.14;100.00;100677.85;1618373;87;21112;-70
2021/11/24 02:46:55;;;;;;;20.27;9.60;;;;;;;-3.21;100.00;100676.88;1685777;83;21099;-69
2021/11/24 02:49:22;;;;;;;32.77;13.97;;;;;;;-3.28;100.00;100678.92;1637069;86;21097;-70
2021/11/24 02:51:49;;;;;;;29.27;14.43;;;;;;;-3.32;100.00;100688.78;1634890;85;21068;-69
2021/11/24 02:54:16;;;;;;;27.03;13.23;;;;;;;-3.35;100.00;100695.98;1634958;85;21065;-70
2021/11/24 02:56:43;;;;;;;24.23;11.70;;;;;;;-3.38;100.00;100689.06;1637447;85;21646;-67
2021/11/24 02:59:11;;;;;;;22.50;8.93;;;;;;;-3.44;100.00;100691.48;1638171;86;21637;-69
2021/11/24 03:01:39;;;;;;;16.67;7.67;;;;;;;-3.50;100.00;100690.91;1619252;88;21080;-69
2021/11/24 03:04:08;;;;;;;17.23;7.40;;;;;;;-3.58;100.00;100699.14;1616897;88;21049;-69
2021/11/24 03:06:36;;;;;;;18.33;7.70;;;;;;;-3.67;100.00;100694.25;1615846;88;21651;-69
2021/11/24 03:09:05;;;;;;;18.37;8.03;;;;;;;-3.73;100.00;100694.05;1616876;88;21090;-68
2021/11/24 03:11:33;;;;;;;20.83;8.87;;;;;;;-3.78;100.00;100698.66;1616776;88;21061;-68
2021/11/24 03:14:00;;;;;;;24.13;11.27;;;;;;;-3.82;100.00;100699.73;1620270;87;21104;-69
2021/11/24 03:16:28;;;;;;;37.10;15.77;;;;;;;-3.87;100.00;100703.02;1618980;88;21656;-70
2021/11/24 03:18:55;;;;;;;50.90;22.33;;;;;;;-3.91;100.00;100705.36;1618118;87;21105;-69
2021/11/24 03:21:23;;;;;;;40.27;16.57;;;;;;;-3.95;100.00;100701.14;1594786;88;21057;-69
2021/11/24 03:23:50;;;;;;;47.80;20.53;;;;;;;-4.01;100.00;100707.06;1617572;88;21110;-69
2021/11/24 03:26:18;;;;;;;42.63;18.73;;;;;;;-4.05;100.00;100715.20;1616335;88;21093;-70
2021/11/24 03:28:45;;;;;;;28.90;11.97;;;;;;;-4.12;100.00;100713.25;1617063;88;21089;-68
2021/11/24 03:31:12;;;;;;;29.50;11.33;;;;;;;-4.18;100.00;100722.72;1618964;88;21089;-69
2021/11/24 03:33:39;;;;;;;21.70;9.37;;;;;;;-4.24;100.00;100717.23;1616944;88;21108;-69
2021/11/24 03:36:06;;;;;;;18.73;8.93;;;;;;;-4.29;100.00;100727.58;1616944;88;21137;-71
2021/11/24 03:38:33;;;;;;;18.27;8.00;;;;;;;-4.33;100.00;100729.47;1619461;88;21554;-69
2021/11/24 03:41:00;;;;;;;18.20;8.03;;;;;;;-4.37;100.00;100730.52;1621539;88;21109;-69
2021/11/24 03:43:27;;;;;;;19.30;7.40;;;;;;;-4.40;100.00;100731.95;1619233;88;21577;-70
2021/11/24 03:45:54;;;;;;;18.83;7.43;;;;;;;-4.41;100.00;100737.70;1646394;84;21055;-71
2021/11/24 03:48:21;;;;;;;19.07;7.60;;;;;;;-4.43;100.00;100740.83;1685164;84;21063;-69
2021/11/24 03:50:48;;;;;;;16.47;7.37;;;;;;;-4.47;100.00;100748.48;1683977;84;21059;-68
2021/11/24 03:53:16;;;;;;;16.77;7.83;;;;;;;-4.49;100.00;100758.70;1657635;86;21076;-69
2021/11/24 03:55:45;;;;;;;17.73;7.90;;;;;;;-4.52;100.00;100759.67;1681700;84;21166;-68
2021/11/24 03:58:14;;;;;;;18.87;8.60;;;;;;;-4.55;100.00;100765.52;1684600;85;21068;-68
2021/11/24 04:00:41;;;;;;;20.03;9.40;;;;;;;-4.60;100.00;100767.88;1671276;84;21028;-70
2021/11/24 04:03:08;;;;;;;18.30;9.07;;;;;;;-4.65;100.00;100772.94;1664928;84;21013;-69
2021/11/24 04:05:35;;;;;;;20.97;8.83;;;;;;;-4.68;100.00;100783.59;1666840;83;21056;-69
2021/11/24 04:08:03;;;;;;;21.50;9.27;;;;;;;-4.74;100.00;100781.19;1703115;83;21086;-69
2021/11/24 04:10:31;;;;;;;22.53;9.57;;;;;;;-4.81;100.00;100793.73;1704355;84;21575;-69
2021/11/24 04:13:00;;;;;;;27.30;11.63;;;;;;;-4.86;100.00;100796.53;1704261;83;21052;-69
2021/11/24 04:15:27;;;;;;;27.23;11.47;;;;;;;-4.91;100.00;100792.33;1703740;83;21706;-69
2021/11/24 04:17:54;;;;;;;26.57;11.40;;;;;;;-4.97;100.00;100794.27;1645022;84;21146;-69
2021/11/24 04:20:23;;;;;;;34.70;12.60;;;;;;;-5.01;100.00;100790.03;1693584;84;21509;-69
2021/11/24 04:22:50;;;;;;;28.27;13.23;;;;;;;-5.03;100.00;100790.55;1696612;84;21023;-69
2021/11/24 04:25:18;;;;;;;30.40;14.70;;;;;;;-5.05;100.00;100797.62;1696871;84;21512;-69
2021/11/24 04:27:46;;;;;;;30.33;14.23;;;;;;;-5.08;100.00;100791.16;1679146;84;21079;-70
2021/11/24 04:30:14;;;;;;;31.30;13.87;;;;;;;-5.10;100.00;100792.11;1661888;84;21018;-69
2021/11/24 04:32:41;;;;;;;29.70;14.30;;;;;;;-5.12;100.00;100796.58;1681715;85;21041;-69
2021/11/24 04:35:09;;;;;;;34.37;16.23;;;;;;;-5.16;100.00;100804.59;1674710;85;21546;-69
2021/11/24 04:37:37;;;;;;;38.10;17.07;;;;;;;-5.18;100.00;100804.25;1652686;85;21076;-69
2021/11/24 04:40:08;;;;;;;42.27;19.93;;;;;;;-5.19;100.00;100807.78;1679123;85;21068;-69
2021/11/24 04:42:37;;;;;;;42.37;18.93;;;;;;;-5.19;100.00;100809.10;1642411;85;21025;-69
2021/11/24 04:45:06;;;;;;;37.00;18.17;;;;;;;-5.18;100.00;100814.80;1676522;85;21137;-70
2021/11/24 04:47:33;;;;;;;35.50;17.37;;;;;;;-5.16;100.00;100824.83;1630880;85;21049;-69
2021/11/24 04:50:00;;;;;;;34.20;15.23;;;;;;;-5.13;100.00;100826.05;1638674;86;21094;-68
2021/11/24 04:52:27;;;;;;;31.43;13.73;;;;;;;-5.13;100.00;100826.48;1608688;87;21096;-69
2021/11/24 04:54:55;;;;;;;30.43;12.20;;;;;;;-5.16;100.00;100832.27;1636355;87;21125;-69
2021/11/24 04:57:22;;;;;;;28.90;11.90;;;;;;;-5.19;100.00;100837.67;1625076;87;21196;-69
2021/11/24 04:59:49;;;;;;;24.73;11.40;;;;;;;-5.18;100.00;100847.75;1636226;86;21066;-68
2021/11/24 05:02:16;;;;;;;26.20;11.30;;;;;;;-5.21;100.00;100847.84;1639774;86;21045;-72
2021/11/24 05:04:44;;;;;;;26.83;11.60;;;;;;;-5.23;100.00;100852.31;1700865;83;21059;-73
2021/11/24 05:07:11;;;;;;;26.77;12.10;;;;;;;-5.25;100.00;100861.59;1703359;83;21586;-73
2021/11/24 05:09:40;;;;;;;30.93;14.03;;;;;;;-5.28;100.00;100860.37;1699748;84;21627;-70
2021/11/24 05:12:08;;;;;;;29.47;14.20;;;;;;;-5.32;100.00;100861.39;1656445;86;21036;-69
2021/11/24 05:14:36;;;;;;;28.67;12.83;;;;;;;-5.35;100.00;100866.31;1669113;84;21009;-70
2021/11/24 05:17:06;;;;;;;43.53;19.43;;;;;;;-5.36;100.00;100869.85;1666124;84;21070;-70
2021/11/24 05:19:35;;;;;;;33.17;14.43;;;;;;;-5.36;100.00;100874.27;1701046;83;21532;-69
2021/11/24 05:22:02;;;;;;;29.37;14.50;;;;;;;-5.34;100.00;100871.13;1655555;86;21045;-69
2021/11/24 05:24:31;;;;;;;36.23;16.23;;;;;;;-5.32;100.00;100873.25;1705022;83;21532;-68
2021/11/24 05:26:58;;;;;;;42.50;17.53;;;;;;;-5.30;100.00;100883.28;1704381;83;21544;-67
2021/11/24 05:29:26;;;;;;;49.97;18.30;;;;;;;-5.28;100.00;100889.37;1679383;84;21083;-69
2021/11/24 05:31:53;;;;;;;77.73;31.80;;;;;;;-5.26;100.00;100883.62;1653597;84;21038;-71
2021/11/24 05:34:20;;;;;;;227.03;73.53;;;;;;;-5.25;100.00;100894.55;1676153;84;21073;-70
2021/11/24 05:36:48;;;;;;;241.13;76.57;;;;;;;-5.24;100.00;100890.13;1690192;84;21057;-69
2021/11/24 05:39:16;;;;;;;342.93;99.50;;;;;;;-5.23;100.00;100894.50;1674105;84;21065;-70
2021/11/24 05:41:43;;;;;;;354.17;103.80;;;;;;;-5.16;100.00;100902.63;1676427;84;21034;-69
2021/11/24 05:44:21;;;;;;;268.43;79.47;;;;;;;-5.05;100.00;100903.12;1642744;87;21045;-69
2021/11/24 05:46:48;;;;;;;72.33;33.47;;;;;;;-4.89;100.00;100902.16;1641374;87;21060;-69
2021/11/24 05:49:15;;;;;;;92.43;50.63;;;;;;;-4.69;100.00;100913.81;1649593;84;21046;-68
2021/11/24 05:51:42;;;;;;;92.77;50.93;;;;;;;-4.47;100.00;100917.91;1681010;84;21078;-69
2021/11/24 05:54:09;;;;;;;66.50;39.07;;;;;;;-4.29;100.00;100915.06;1689643;84;21161;-70
2021/11/24 05:56:39;;;;;;;68.77;38.47;;;;;;;-4.16;100.00;100926.04;1646055;84;21098;-69
2021/11/24 05:59:09;;;;;;;68.63;35.50;;;;;;;-4.11;100.00;100919.66;1684769;84;21070;-70
2021/11/24 06:01:37;;;;;;;73.27;32.37;;;;;;;-4.08;100.00;100919.56;1687391;85;21138;-68
2021/11/24 06:04:05;;;;;;;80.73;35.87;;;;;;;-4.07;100.00;100923.94;1685942;83;21013;-70
2021/11/24 06:06:32;;;;;;;49.67;22.93;;;;;;;-4.05;100.00;100930.50;1702697;83;21493;-73
2021/11/24 06:08:59;;;;;;;50.37;24.30;;;;;;;-4.00;100.00;100920.63;1715713;83;20998;-70
2021/11/24 06:11:26;;;;;;;59.80;29.40;;;;;;;-3.96;100.00;100931.47;1658638;85;21047;-74
2021/11/24 06:13:53;;;;;;;32.77;14.63;;;;;;;-3.90;100.00;100927.73;1644483;85;21048;-69
2021/11/24 06:16:21;;;;;;;35.07;14.47;;;;;;;-3.82;100.00;100929.64;1644494;85;21067;-70
2021/11/24 06:18:49;;;;;;;45.30;19.03;;;;;;;-3.76;100.00;100928.08;1649089;85;21079;-72
2021/11/24 06:21:19;;;;;;;48.53;19.20;;;;;;;-3.68;100.00;100929.98;1664469;85;21089;-71
2021/11/24 06:23:47;;;;;;;42.70;20.80;;;;;;;-3.59;100.00;100935.37;1677605;85;21076;-72
2021/11/24 06:26:15;;;;;;;52.00;21.57;;;;;;;-3.46;100.00;100928.67;1686271;83;21029;-69
2021/11/24 06:28:43;;;;;;;100.00;36.97;;;;;;;-3.34;100.00;100933.10;1731160;83;21039;-70
2021/11/24 06:31:10;;;;;;;58.00;25.53;;;;;;;-3.24;100.00;100933.11;1678497;84;21048;-70
2021/11/24 06:33:39;;;;;;;55.83;26.63;;;;;;;-3.15;100.00;100934.09;1679269;84;21182;-70
2021/11/24 06:36:06;;;;;;;50.07;25.20;;;;;;;-3.04;100.00;100935.45;1703055;83;21024;-69
2021/11/24 06:38:33;;;;;;;42.20;20.70;;;;;;;-2.96;100.00;100935.51;1699281;83;21063;-70
2021/11/24 06:41:00;;;;;;;37.47;18.27;;;;;;;-2.84;100.00;100938.59;1693795;84;21019;-69
2021/11/24 06:43:27;;;;;;;34.23;18.70;;;;;;;-2.70;100.00;100936.23;1676543;84;21565;-69
2021/11/24 06:45:55;;;;;;;32.73;13.73;;;;;;;-2.55;100.00;100938.69;1704280;83;22294;-69
2021/11/24 06:48:22;;;;;;;32.03;11.87;;;;;;;-2.40;100.00;100936.71;1661358;84;21089;-70
2021/11/24 06:50:49;;;;;;;26.43;14.33;;;;;;;-2.26;100.00;100938.77;1704754;83;21060;-69
2021/11/24 06:53:16;;;;;;;35.87;19.93;;;;;;;-2.11;100.00;100941.19;1646585;84;21073;-68
2021/11/24 06:55:45;;;;;;;33.10;17.67;;;;;;;-1.95;100.00;100942.70;1697640;84;21068;-69
2021/11/24 06:58:12;;;;;;;26.83;15.30;;;;;;;-1.77;100.00;100944.97;1667745;84;21056;-68
2021/11/24 07:00:40;;;;;;;73.87;45.90;;;;;;;-1.59;100.00;100941.97;1716312;83;21548;-68
2021/11/24 07:03:07;;;;;;;97.57;50.00;;;;;;;-1.47;100.00;100942.72;1657554;85;21077;-69
2021/11/24 07:05:34;;;;;;;106.83;57.43;;;;;;;-1.35;100.00;100937.28;1714596;83;21062;-66
2021/11/24 07:08:01;;;;;;;80.13;42.90;;;;;;;-1.23;100.00;100928.73;1677546;85;21542;-69
2021/11/24 07:10:28;;;;;;;133.60;56.40;;;;;;;-1.09;100.00;100939.17;1671608;85;21545;-69
2021/11/24 07:12:57;;;;;;;46.93;22.47;;;;;;;-0.97;100.00;100946.06;1670506;84;21088;-70
2021/11/24 07:15:25;;;;;;;38.00;22.87;;;;;;;-0.85;100.00;100952.58;1671151;84;21657;-69
2021/11/24 07:17:52;;;;;;;30.17;17.93;;;;;;;-0.73;100.00;100952.89;1675029;84;21620;-69
2021/11/24 07:20:19;;;;;;;28.90;16.47;;;;;;;-0.61;100.00;100961.58;1674541;84;21045;-70
2021/11/24 07:22:46;;;;;;;26.80;14.60;;;;;;;-0.44;100.00;100956.28;1671176;84;21049;-69
2021/11/24 07:25:13;;;;;;;18.60;9.57;;;;;;;-0.31;100.00;100965.80;1670402;84;21545;-72
2021/11/24 07:27:40;;;;;;;30.23;15.97;;;;;;;-0.20;100.00;100967.42;1633117;84;21062;-68
2021/11/24 07:30:09;;;;;;;73.83;27.43;;;;;;;-0.02;100.00;100968.30;1673970;85;21052;-70
2021/11/24 07:32:36;;;;;;;23.47;11.97;;;;;;;0.13;100.00;100979.06;1666510;84;21526;-70
2021/11/24 09:59:58;;;;;;;20.73;11.03;;;;;;;2.92;94.62;101021.06;1744934;81;21582;-70
2021/11/24 10:02:25;;;;;;;25.30;12.80;;;;;;;2.74;94.35;101013.72;1745732;81;21111;-70
2021/11/24 10:04:52;;;;;;;26.87;14.40;;;;;;;2.92;97.11;101022.41;1743275;80;21042;-69
2021/11/24 10:07:19;;;;;;;29.10;16.50;;;;;;;2.98;100.00;101017.98;1737751;81;21023;-68
2021/11/24 10:09:49;;;;;;;24.73;15.30;;;;;;;2.97;100.00;101012.73;1715326;82;21024;-68
2021/11/24 10:12:16;;;;;;;15.90;8.43;;;;;;;2.95;100.00;101016.84;1752566;81;21011;-69
2021/11/24 10:14:43;;;;;;;28.30;19.97;;;;;;;2.97;100.00;101013.58;1759012;81;21083;-67
2021/11/24 10:17:17;;;;;;;28.70;18.07;;;;;;;3.07;97.89;101012.53;1742107;81;21076;-68
2021/11/24 10:20:06;;;;;;;13.27;7.17;;;;;;;3.16;96.55;101012.41;1695364;82;21058;-69
2021/11/24 10:22:35;;;;;;;33.93;21.70;;;;;;;3.36;94.12;101011.95;1667244;84;21528;-71
2021/11/24 10:25:11;;;;;;;27.07;16.37;;;;;;;3.36;89.82;101010.62;1680986;83;21632;-70
2021/11/24 10:27:43;;;;;;;25.63;14.23;;;;;;;3.21;82.88;101011.64;1671918;83;21164;-68
2021/11/24 10:30:10;;;;;;;15.53;7.47;;;;;;;2.92;76.23;101009.50;1681300;83;21026;-66
2021/11/24 10:32:37;;;;;;;23.53;11.57;;;;;;;2.65;71.90;101015.15;1677803;83;21072;-68
2021/11/24 10:35:04;;;;;;;11.43;5.77;;;;;;;2.52;71.51;101015.55;1672466;84;20979;-68
2021/11/24 10:37:32;;;;;;;15.77;7.93;;;;;;;2.42;73.05;101013.91;1683301;84;21042;-70
2021/11/24 10:40:08;;;;;;;27.67;15.97;;;;;;;2.50;76.00;101013.45;1688871;84;21068;-70
2021/11/24 10:42:38;;;;;;;19.40;8.43;;;;;;;2.72;79.53;101010.77;1697727;82;21091;-69
2021/11/24 10:45:14;;;;;;;21.40;12.37;;;;;;;2.95;81.42;101010.16;1635623;87;21104;-70
2021/11/24 10:47:56;;;;;;;28.80;17.33;;;;;;;3.18;82.70;101007.83;1638020;87;21627;-68
2021/11/24 10:50:27;;;;;;;24.63;15.07;;;;;;;3.31;80.68;101011.42;1617549;87;21034;-69
2021/11/24 10:52:54;;;;;;;25.10;13.50;;;;;;;3.16;78.77;101010.59;1624662;87;21095;-71
2021/11/24 10:55:28;;;;;;;50.47;22.27;;;;;;;3.13;80.29;101013.94;1635166;86;21095;-73
2021/11/24 10:58:18;;;;;;;21.47;11.27;;;;;;;3.16;82.48;101011.92;1633338;85;21095;-69
2021/11/24 11:00:54;;;;;;;26.80;15.13;;;;;;;3.28;84.65;101010.28;1570343;89;21116;-67
2021/11/24 11:03:32;;;;;;;30.93;19.87;;;;;;;3.40;85.78;101013.98;1565848;88;21120;-71
2021/11/24 11:05:59;;;;;;;23.33;13.10;;;;;;;3.40;85.50;101016.16;1577006;88;21074;-70
2021/11/24 11:08:26;;;;;;;23.60;10.90;;;;;;;3.33;86.83;101011.30;1588568;88;21066;-69
2021/11/24 11:10:56;;;;;;;22.30;13.43;;;;;;;3.38;82.75;101020.76;1605716;88;21081;-68
2021/11/24 11:13:23;;;;;;;22.07;13.27;;;;;;;3.31;75.46;101014.10;1562702;90;21078;-67
2021/11/24 11:15:54;;;;;;;25.17;12.43;;;;;;;3.19;73.49;101017.08;1532995;92;21059;-69
2021/11/24 11:18:26;;;;;;;19.20;11.63;;;;;;;3.13;73.51;101011.27;1489321;94;21314;-70
2021/11/24 11:21:09;;;;;;;22.10;14.47;;;;;;;3.08;71.30;101019.60;1494600;94;21133;-69
2021/11/24 11:23:37;;;;;;;;;;;;;;;2.91;70.62;101023.34;1503113;94;21581;-68
2021/11/24 11:26:11;;;;;;;20.23;10.33;;;;;;;2.95;73.75;101015.98;1476916;94;20153;-70
2021/11/24 11:28:45;;;;;;;22.27;12.73;;;;;;;2.93;71.31;101021.91;1454554;96;21126;-70
2021/11/24 11:31:16;;;;;;;49.00;20.83;;;;;;;2.96;74.13;101019.91;1493083;95;21129;-69
2021/11/24 11:33:55;;;;;;;17.50;8.60;;;;;;;3.06;76.03;101021.98;1494390;94;21582;-70
2021/11/24 11:36:23;;;;;;;21.17;12.40;;;;;;;3.14;73.59;101016.52;1445307;98;21121;-70
2021/11/24 11:38:53;;;;;;;18.23;9.20;;;;;;;3.08;74.17;101017.39;1432833;97;21620;-70
2021/11/24 11:41:35;;;;;;;35.60;23.40;;;;;;;3.03;73.78;101021.22;1446145;98;21625;-71
2021/11/24 11:44:04;;;;;;;20.33;10.47;;;;;;;3.01;75.04;101023.14;1450428;98;21186;-69
2021/11/24 11:46:34;;;;;;;24.30;14.50;;;;;;;3.33;76.36;101018.86;1442750;98;21150;-70
2021/11/24 11:49:11;;;;;;;26.40;17.63;;;;;;;3.89;74.04;101023.20;1454237;97;21653;-72
2021/11/24 11:51:41;;;;;;;29.83;16.20;;;;;;;4.32;72.50;101018.91;1424976;100;21178;-70
2021/11/24 11:54:16;;;;;;;24.40;11.83;;;;;;;4.75;65.71;101022.59;1426605;99;21178;-71
2021/11/24 11:56:45;;;;;;;27.63;19.73;;;;;;;5.01;61.45;101010.47;1425093;100;21096;-71
2021/11/24 11:59:24;;;;;;;24.00;12.90;;;;;;;5.26;59.28;101006.87;1394428;101;21125;-72
2021/11/24 12:02:00;;;;;;;29.13;15.87;;;;;;;5.40;56.34;101002.68;1389290;101;21208;-70
2021/11/24 12:04:50;;;;;;;27.53;16.60;;;;;;;5.49;52.77;101004.67;1409162;100;21140;-70
2021/11/24 12:07:22;;;;;;;27.63;16.17;;;;;;;5.48;52.18;101007.46;1414310;99;21210;-69
2021/11/24 12:09:54;;;;;;;27.10;12.07;;;;;;;5.49;51.61;101015.89;1370705;104;21270;-69
2021/11/24 12:12:32;;;;;;;42.63;23.23;;;;;;;5.45;50.42;101019.75;1395394;101;21293;-70
2021/11/24 12:15:17;;;;;;;37.53;23.17;;;;;;;5.35;50.65;101021.40;1423202;99;21234;-70
2021/11/24 12:17:53;;;;;;;32.30;20.20;;;;;;;5.31;50.99;101020.77;1406719;100;21245;-69
2021/11/24 12:20:30;;;;;;;52.37;31.10;;;;;;;5.09;51.95;101022.84;1434349;98;21101;-69
2021/11/24 12:23:00;;;;;;;37.70;20.37;;;;;;;4.85;53.98;101023.66;1454058;96;21297;-70
2021/11/24 12:25:34;;;;;;;42.07;23.27;;;;;;;4.65;56.30;101023.72;1459702;97;21187;-73
2021/11/24 12:28:07;;;;;;;35.75;19.48;;;;;;;4.63;59.40;101024.31;1457192;97;21121;-69
2021/11/24 12:30:51;;;;;;;46.33;26.00;;;;;;;4.80;61.64;101023.13;1467826;96;21079;-69
2021/11/24 12:33:27;;;;;;;;;;;;;;;4.91;61.24;101024.54;1501621;93;21068;-69
2021/11/24 12:36:07;;;;;;;46.97;28.67;;;;;;;4.88;61.21;101022.56;1517934;93;20150;-70
2021/11/24 12:38:51;;;;;;;60.50;35.23;;;;;;;4.65;62.44;101022.38;1520571;93;21093;-70
2021/11/24 12:41:23;;;;;;;54.00;28.60;;;;;;;4.32;65.03;101022.45;1512669;93;21097;-69
2021/11/24 12:43:54;;;;;;;55.30;32.60;;;;;;;4.27;68.21;101022.41;1529810;90;21063;-69
2021/11/24 12:46:28;;;;;;;66.03;38.97;;;;;;;4.33;71.66;101026.83;1561516;90;21037;-69
2021/11/24 12:49:01;;;;;;;57.77;34.50;;;;;;;4.53;71.52;101029.94;1614935;85;21041;-70
2021/11/24 12:51:39;;;;;;;61.73;41.83;;;;;;;4.56;70.26;101021.69;1636798;86;21102;-70
2021/11/24 12:54:17;;;;;;;47.27;30.63;;;;;;;4.57;68.77;101019.41;1609331;88;21214;-69
2021/11/24 12:56:49;;;;;;;40.43;27.43;;;;;;;4.46;66.36;101033.55;1560037;91;21309;-69
2021/11/24 12:59:37;;;;;;;45.47;32.80;;;;;;;4.23;66.30;101025.75;1545720;90;21109;-69
2021/11/24 13:02:07;;;;;;;45.37;31.37;;;;;;;3.97;66.04;101036.92;1512160;90;21140;-70
2021/11/24 13:04:46;;;;;;;44.07;27.67;;;;;;;3.83;67.97;101038.34;1485186;94;21090;-65
2021/11/24 13:07:19;;;;;;;38.47;24.90;;;;;;;3.76;68.84;101036.55;1495759;94;21153;-69
2021/11/24 13:09:47;;;;;;;49.00;33.03;;;;;;;3.53;68.84;101036.75;1479243;95;21225;-69
2021/11/24 13:12:19;;;;;;;40.70;28.23;;;;;;;3.39;70.33;101036.31;1466234;97;21096;-69
2021/11/24 13:14:53;;;;;;;41.20;28.00;;;;;;;3.45;72.97;101040.39;1504454;94;21624;-69
2021/11/24 13:17:22;;;;;;;47.37;34.00;;;;;;;3.57;74.72;101037.77;1484979;95;21111;-69
2021/11/24 13:19:55;;;;;;;43.27;27.20;;;;;;;3.70;73.16;101042.30;1492532;94;21167;-70
2021/11/24 13:22:41;;;;;;;36.23;21.50;;;;;;;3.72;73.37;101036.36;1506641;94;21158;-69
2021/11/24 13:25:26;;;;;;;42.03;28.23;;;;;;;3.80;73.85;101040.73;1502879;94;21225;-69
2021/11/24 13:28:06;;;;;;;30.37;17.60;;;;;;;3.80;73.88;101039.39;1515202;94;21155;-68
2021/11/24 13:30:55;;;;;;;33.03;23.73;;;;;;;3.75;70.54;101042.84;1475309;97;21082;-69
2021/11/24 13:33:33;;;;;;;24.90;14.33;;;;;;;3.43;65.00;101047.17;1473053;96;21614;-68
2021/11/24 13:36:12;;;;;;;26.37;17.30;;;;;;;2.87;64.58;101043.66;1475353;96;21138;-69
2021/11/24 13:38:43;;;;;;;35.30;24.00;;;;;;;2.53;66.27;101045.28;1475045;96;21681;-71
2021/11/24 13:41:28;;;;;;;40.27;25.23;;;;;;;2.15;67.10;101044.48;1488422;95;21684;-70
2021/11/24 13:44:05;;;;;;;53.97;31.07;;;;;;;1.82;70.59;101044.68;1488243;96;21096;-70